Time;durP1;ratioP1;P1;durP2;ratioP2;P2;SDS_P1;SDS_P2;PMS_P1;PMS_P2;Temp;Humidity;BMP_temperature;BMP_pressure;BME280_temperature;BME280_humidity;BME280_pressure;Samples;Min_cycle;Max_cycle;Signal;HPM_P1;HPM_P2
2023/09/26 00:00:29;;;;;;;16.25;5.93;;;;;;;12.84;100.00;102019.13;6242351;23;20389;-71
2023/09/26 00:02:55;;;;;;;18.23;5.40;;;;;;;12.85;100.00;102019.00;6242755;23;20007;-72
2023/09/26 00:05:22;;;;;;;15.30;5.30;;;;;;;12.83;100.00;102015.56;6242527;23;20433;-72
2023/09/26 00:07:48;;;;;;;14.90;5.47;;;;;;;12.82;100.00;102004.88;6242621;23;20069;-71
2023/09/26 00:10:14;;;;;;;23.65;6.10;;;;;;;12.79;100.00;101997.84;6242620;23;20434;-72
2023/09/26 00:12:39;;;;;;;15.77;5.80;;;;;;;12.78;100.00;102009.56;6242689;23;20008;-72
2023/09/26 00:15:07;;;;;;;16.95;5.80;;;;;;;12.76;100.00;102009.69;6242964;23;20077;-72
2023/09/26 00:17:33;;;;;;;17.05;5.60;;;;;;;12.74;100.00;102013.47;6242194;23;20001;-72
2023/09/26 00:19:58;;;;;;;15.00;5.50;;;;;;;12.72;100.00;102015.38;6214988;23;20004;-72
2023/09/26 00:22:24;;;;;;;18.15;6.03;;;;;;;12.67;100.00;102014.81;6241973;23;20053;-72
2023/09/26 00:24:51;;;;;;;15.60;5.47;;;;;;;12.67;100.00;102014.81;6241973;23;20012;-72
2023/09/26 00:27:17;;;;;;;16.55;6.15;;;;;;;12.64;100.00;102017.72;6214926;23;20057;-71
2023/09/26 00:29:44;;;;;;;17.67;6.32;;;;;;;12.63;100.00;102010.56;6242636;23;20081;-71
2023/09/26 00:32:09;;;;;;;16.00;5.60;;;;;;;12.62;100.00;102014.22;6242363;23;20004;-72
2023/09/26 00:34:35;;;;;;;17.52;5.85;;;;;;;12.61;100.00;102005.28;6241834;23;20116;-72
2023/09/26 00:37:00;;;;;;;16.50;5.55;;;;;;;12.59;100.00;102004.50;6241860;23;20004;-72
2023/09/26 00:39:25;;;;;;;17.08;6.10;;;;;;;12.56;100.00;102010.97;6243002;23;20000;-72
2023/09/26 00:41:54;;;;;;;17.08;5.82;;;;;;;12.52;100.00;102014.81;6214608;23;20011;-72
2023/09/26 00:44:19;;;;;;;16.42;5.72;;;;;;;12.50;100.00;102007.78;6240871;23;20417;-72
2023/09/26 00:46:45;;;;;;;15.70;5.70;;;;;;;12.48;100.00;102005.19;6241348;23;20011;-71
2023/09/26 00:49:11;;;;;;;15.73;5.88;;;;;;;12.46;100.00;102006.22;6241793;23;19996;-73
2023/09/26 00:51:38;;;;;;;15.88;5.57;;;;;;;12.45;100.00;102007.22;6215229;23;20049;-71
2023/09/26 00:54:04;;;;;;;19.75;6.47;;;;;;;12.42;100.00;101997.47;6242215;23;20069;-71
2023/09/26 00:56:29;;;;;;;16.20;6.13;;;;;;;12.41;100.00;102001.13;6241356;23;20067;-71
2023/09/26 00:58:57;;;;;;;16.75;6.07;;;;;;;12.40;100.00;102000.28;6242007;23;20444;-71
2023/09/26 01:01:24;;;;;;;16.67;5.60;;;;;;;12.39;100.00;101997.69;6214623;23;20010;-71
2023/09/26 01:03:50;;;;;;;14.50;5.88;;;;;;;12.38;100.00;101995.94;6241177;23;20000;-71
2023/09/26 01:06:15;;;;;;;13.90;5.53;;;;;;;12.36;100.00;101992.47;6214377;23;20323;-71
2023/09/26 01:08:41;;;;;;;17.50;5.53;;;;;;;12.34;100.00;101994.38;6214355;23;20027;-72
2023/09/26 01:11:06;;;;;;;15.70;5.45;;;;;;;12.35;100.00;101996.13;6214903;23;20010;-71
2023/09/26 01:13:32;;;;;;;18.33;5.70;;;;;;;12.35;100.00;101991.59;6242033;23;20004;-71
2023/09/26 01:15:57;;;;;;;14.77;5.05;;;;;;;12.34;100.00;101986.31;6213446;23;20011;-71
2023/09/26 01:18:23;;;;;;;16.83;5.95;;;;;;;12.35;100.00;101985.34;6242017;23;20310;-71
2023/09/26 01:20:49;;;;;;;17.55;6.85;;;;;;;12.34;100.00;101994.38;6213746;23;20083;-71
2023/09/26 01:23:16;;;;;;;16.48;7.05;;;;;;;12.31;100.00;101997.28;6240677;23;20389;-72
2023/09/26 01:25:42;;;;;;;16.90;6.07;;;;;;;12.28;100.00;101994.78;6241003;23;20032;-71
2023/09/26 01:28:10;;;;;;;19.45;6.13;;;;;;;12.26;100.00;101994.88;6241542;23;20282;-71
2023/09/26 01:30:39;;;;;;;18.92;6.90;;;;;;;12.26;100.00;102004.81;6241027;23;20004;-71
2023/09/26 01:33:16;;;;;;;17.35;6.05;;;;;;;12.22;100.00;102002.28;6242718;23;20000;-71
2023/09/26 01:35:42;;;;;;;18.88;6.03;;;;;;;12.22;100.00;102002.28;6242976;23;20004;-71
2023/09/26 01:38:08;;;;;;;15.43;5.95;;;;;;;12.22;100.00;101999.56;6243024;23;20008;-71
2023/09/26 01:40:33;;;;;;;14.88;5.63;;;;;;;12.20;100.00;101989.88;6244534;23;20317;-71
2023/09/26 01:42:58;;;;;;;15.90;5.75;;;;;;;12.21;100.00;101994.28;6244287;23;20034;-71
2023/09/26 01:45:24;;;;;;;17.50;6.68;;;;;;;12.19;100.00;101994.38;6243815;23;20062;-71
2023/09/26 01:47:51;;;;;;;15.25;6.20;;;;;;;12.16;100.00;101991.88;6244029;23;20000;-72
2023/09/26 01:50:18;;;;;;;17.58;6.53;;;;;;;12.15;100.00;101995.56;6215925;23;20445;-71
2023/09/26 01:52:44;;;;;;;16.45;6.15;;;;;;;12.13;100.00;101997.47;6243089;23;20070;-70
2023/09/26 01:55:20;;;;;;;17.58;6.38;;;;;;;12.14;100.00;101991.13;6242753;23;20004;-71
2023/09/26 01:57:46;;;;;;;16.95;6.25;;;;;;;12.13;100.00;101981.28;6242861;23;20003;-74
2023/09/26 02:00:13;;;;;;;19.63;6.28;;;;;;;12.10;100.00;101980.63;6244088;23;20008;-74
2023/09/26 02:02:39;;;;;;;16.30;6.15;;;;;;;12.11;100.00;101985.91;6243902;23;20004;-74
2023/09/26 02:05:19;;;;;;;17.73;5.70;;;;;;;12.10;100.00;101981.47;6242808;23;20008;-73
2023/09/26 02:07:45;;;;;;;;;;;;;;;12.16;100.00;101988.31;6217077;23;20012;-74
2023/09/26 02:10:11;;;;;;;16.23;6.13;;;;;;;12.12;100.00;101992.16;6243973;23;19907;-73
2023/09/26 02:12:38;;;;;;;15.05;6.20;;;;;;;12.11;100.00;101983.22;6243345;23;20074;-73
2023/09/26 02:15:05;;;;;;;16.38;6.15;;;;;;;12.07;100.00;101979.84;6216962;23;20035;-74
2023/09/26 02:17:33;;;;;;;15.30;6.07;;;;;;;12.07;100.00;101981.66;6215561;23;20377;-74
2023/09/26 02:20:12;;;;;;;16.73;6.20;;;;;;;12.04;100.00;101977.34;6243468;23;20014;-74
2023/09/26 02:22:41;;;;;;;16.40;5.50;;;;;;;12.02;100.00;101971.19;6215873;23;20079;-73
2023/09/26 02:25:21;;;;;;;14.45;5.70;;;;;;;12.03;100.00;101975.59;6243539;23;20035;-74
2023/09/26 02:27:47;;;;;;;18.27;5.88;;;;;;;12.02;100.00;101973.88;6216648;23;20006;-74
2023/09/26 02:30:15;;;;;;;18.05;6.07;;;;;;;12.01;100.00;101974.84;6242641;23;20403;-73
2023/09/26 02:32:40;;;;;;;18.25;6.20;;;;;;;11.98;100.00;101980.41;6243302;23;20008;-74
2023/09/26 02:35:10;;;;;;;14.80;5.65;;;;;;;11.96;100.00;101976.06;6241949;23;20011;-74
2023/09/26 02:37:36;;;;;;;17.90;6.28;;;;;;;11.95;100.00;101979.72;6215788;23;20008;-73
2023/09/26 02:40:05;;;;;;;19.52;6.53;;;;;;;11.94;100.00;101976.16;6243019;23;20080;-74
2023/09/26 02:42:33;;;;;;;16.92;6.55;;;;;;;11.94;100.00;101973.47;6243000;23;20170;-74
2023/09/26 02:44:59;;;;;;;16.13;6.05;;;;;;;11.92;100.00;101956.50;6215415;23;20460;-74
2023/09/26 02:47:24;;;;;;;16.70;6.28;;;;;;;11.93;100.00;101949.28;6243299;23;20004;-74
2023/09/26 02:49:50;;;;;;;20.90;6.22;;;;;;;11.92;100.00;101956.50;6215151;23;20456;-73
2023/09/26 02:52:15;;;;;;;16.13;5.75;;;;;;;11.91;100.00;101957.47;6216220;23;20309;-74
2023/09/26 02:54:40;;;;;;;16.92;6.43;;;;;;;11.89;100.00;101952.16;6215572;23;20004;-73
2023/09/26 02:57:05;;;;;;;17.38;5.53;;;;;;;11.89;100.00;101957.56;6243298;23;20373;-73
2023/09/26 02:59:31;;;;;;;14.77;5.63;;;;;;;11.89;100.00;101946.78;6216182;23;20008;-73
2023/09/26 03:01:56;;;;;;;16.08;5.85;;;;;;;11.89;100.00;101940.53;6242954;23;20032;-73
2023/09/26 03:04:22;;;;;;;18.20;6.25;;;;;;;11.88;100.00;101936.09;6243061;23;20007;-73
2023/09/26 03:06:47;;;;;;;18.35;6.53;;;;;;;11.86;100.00;101933.50;6242513;23;20334;-71
2023/09/26 03:09:15;;;;;;;16.95;6.35;;;;;;;11.87;100.00;101939.75;6215564;23;20058;-71
2023/09/26 03:11:40;;;;;;;15.75;5.85;;;;;;;11.88;100.00;101936.09;6243120;23;20008;-71
2023/09/26 03:14:05;;;;;;;19.30;6.57;;;;;;;11.85;100.00;101939.84;6242454;23;20078;-71
2023/09/26 03:16:30;;;;;;;20.05;6.50;;;;;;;11.82;100.00;101936.50;6215352;23;20333;-71
2023/09/26 03:18:56;;;;;;;15.30;5.72;;;;;;;11.79;100.00;101936.69;6215564;23;20082;-72
2023/09/26 03:21:22;;;;;;;18.58;6.50;;;;;;;11.77;100.00;101935.88;6242545;23;20004;-71
2023/09/26 03:23:47;;;;;;;17.33;6.32;;;;;;;11.75;100.00;101932.44;6242619;23;20299;-72
2023/09/26 03:26:14;;;;;;;19.13;6.25;;;;;;;11.74;100.00;101931.53;6215649;23;20000;-71
2023/09/26 03:28:39;;;;;;;16.48;6.30;;;;;;;11.72;100.00;101931.66;6242271;23;20004;-71
2023/09/26 03:31:05;;;;;;;16.85;6.65;;;;;;;11.73;100.00;101932.53;6242799;23;20070;-71
2023/09/26 03:33:32;;;;;;;17.88;6.80;;;;;;;11.69;100.00;101930.97;6243328;23;20008;-71
2023/09/26 03:35:58;;;;;;;17.92;6.70;;;;;;;11.68;100.00;101931.94;6242153;23;20004;-71
2023/09/26 03:38:23;;;;;;;18.05;6.85;;;;;;;11.68;100.00;101931.94;6242125;23;20074;-70
2023/09/26 03:40:56;;;;;;;17.00;6.32;;;;;;;11.66;100.00;101934.72;6216038;23;20101;-71
2023/09/26 03:43:21;;;;;;;17.95;6.47;;;;;;;11.67;100.00;101935.56;6215238;23;20003;-71
2023/09/26 03:45:47;;;;;;;16.42;6.43;;;;;;;11.64;100.00;101930.38;6242687;23;20082;-71
2023/09/26 03:48:12;;;;;;;16.35;6.18;;;;;;;11.62;100.00;101926.91;6214661;23;20418;-71
2023/09/26 03:50:37;;;;;;;18.20;6.45;;;;;;;11.60;100.00;101934.25;6212422;23;20034;-71
2023/09/26 03:53:03;;;;;;;19.70;7.35;;;;;;;11.59;100.00;101933.34;6239169;23;20484;-72
2023/09/26 03:55:28;;;;;;;19.90;7.18;;;;;;;11.60;100.00;101928.84;6240605;23;20004;-71
2023/09/26 03:57:53;;;;;;;17.17;6.43;;;;;;;11.57;100.00;101929.91;6242325;23;20079;-71
2023/09/26 04:00:25;;;;;;;19.60;7.03;;;;;;;11.54;100.00;101920.16;6215774;23;20007;-71
2023/09/26 04:02:51;;;;;;;17.08;6.35;;;;;;;11.53;100.00;101918.44;6214748;23;20513;-71
2023/09/26 04:05:16;;;;;;;16.73;6.68;;;;;;;11.52;100.00;101921.22;6214840;23;20035;-71
2023/09/26 04:07:42;;;;;;;18.40;6.70;;;;;;;11.51;100.00;101930.28;6242189;23;20358;-71
2023/09/26 04:10:08;;;;;;;18.05;6.63;;;;;;;11.45;100.00;101926.13;6213804;23;20023;-71
2023/09/26 04:12:33;;;;;;;18.15;7.07;;;;;;;11.42;100.00;101929.00;6242156;23;20011;-71
2023/09/26 04:14:59;;;;;;;19.20;6.68;;;;;;;11.41;100.00;101923.69;6241810;23;20406;-72
2023/09/26 04:17:24;;;;;;;17.38;6.50;;;;;;;11.39;100.00;101918.41;6241246;23;20256;-74
2023/09/26 04:19:50;;;;;;;18.35;6.22;;;;;;;11.39;100.00;101917.53;6240494;23;20444;-73
2023/09/26 04:22:15;;;;;;;16.05;6.55;;;;;;;11.37;100.00;101912.25;6238541;23;20552;-73
2023/09/26 04:24:40;;;;;;;16.75;6.25;;;;;;;11.37;100.00;101912.25;6214950;23;20015;-74
2023/09/26 04:27:06;;;;;;;15.52;6.15;;;;;;;11.34;100.00;101907.03;6242389;23;20352;-73
2023/09/26 04:29:33;;;;;;;17.73;6.20;;;;;;;11.34;100.00;101896.28;6241807;23;19996;-73
2023/09/26 04:31:58;;;;;;;17.85;6.38;;;;;;;11.36;100.00;101902.41;6215153;23;20326;-74
2023/09/26 04:34:27;;;;;;;17.95;6.05;;;;;;;11.34;100.00;101893.59;6242654;23;20008;-74
2023/09/26 04:36:53;;;;;;;15.87;6.33;;;;;;;11.34;100.00;101902.50;6214352;23;20004;-74
2023/09/26 04:39:18;;;;;;;19.05;5.88;;;;;;;11.33;100.00;101899.91;6214937;23;20338;-74
2023/09/26 04:41:45;;;;;;;17.05;6.35;;;;;;;11.35;100.00;101895.31;6216032;23;20406;-74
2023/09/26 04:44:10;;;;;;;18.60;6.43;;;;;;;11.36;100.00;101895.22;6215151;23;20405;-73
2023/09/26 04:46:36;;;;;;;16.88;6.35;;;;;;;11.38;100.00;101889.75;6214564;23;20107;-73
2023/09/26 04:49:01;;;;;;;18.60;6.95;;;;;;;11.42;100.00;101895.81;6241689;23;20079;-73
2023/09/26 04:51:27;;;;;;;19.67;7.47;;;;;;;11.44;100.00;101888.53;6215376;23;20058;-73
2023/09/26 04:53:52;;;;;;;18.95;7.28;;;;;;;11.47;100.00;101882.94;6242368;23;20076;-74
2023/09/26 04:56:18;;;;;;;21.23;8.18;;;;;;;11.48;100.00;101874.78;6214921;23;20086;-74
2023/09/26 04:58:43;;;;;;;20.60;9.00;;;;;;;11.54;100.00;101881.63;6241928;23;20058;-73
2023/09/26 05:01:13;;;;;;;22.75;9.85;;;;;;;11.58;100.00;101882.28;6242247;23;20032;-74
2023/09/26 05:03:39;;;;;;;21.02;9.73;;;;;;;11.61;100.00;101887.47;6242516;23;20075;-73
2023/09/26 05:06:07;;;;;;;20.88;9.10;;;;;;;11.62;100.00;101887.38;6209181;23;20385;-73
2023/09/26 05:08:32;;;;;;;20.23;9.30;;;;;;;11.66;100.00;101890.78;6214448;23;20092;-73
2023/09/26 05:10:57;;;;;;;20.65;10.05;;;;;;;11.66;100.00;101890.78;6215283;23;20007;-73
2023/09/26 05:13:23;;;;;;;21.58;9.30;;;;;;;11.65;100.00;101886.34;6215375;23;20062;-73
2023/09/26 05:15:48;;;;;;;20.98;10.02;;;;;;;11.64;100.00;101885.47;6212880;23;20044;-73
2023/09/26 05:18:14;;;;;;;20.20;9.18;;;;;;;11.65;100.00;101880.94;6214358;23;20001;-74
2023/09/26 05:20:39;;;;;;;20.42;9.27;;;;;;;11.64;100.00;101876.53;6214497;23;20024;-74
2023/09/26 05:23:04;;;;;;;21.80;9.57;;;;;;;11.63;100.00;101877.50;6213186;23;20087;-73
2023/09/26 05:25:33;;;;;;;19.95;9.00;;;;;;;11.61;100.00;101888.38;6211360;23;20017;-73
2023/09/26 05:27:58;;;;;;;19.38;8.50;;;;;;;11.59;100.00;101876.81;6214074;23;20011;-73
2023/09/26 05:30:23;;;;;;;20.85;8.65;;;;;;;11.60;100.00;101883.06;6213916;23;20111;-71
2023/09/26 05:32:49;;;;;;;20.65;9.13;;;;;;;11.59;100.00;101892.09;6212577;23;20005;-71
2023/09/26 05:35:14;;;;;;;19.85;8.52;;;;;;;11.58;100.00;101877.78;6212403;23;20018;-71
2023/09/26 05:37:39;;;;;;;19.15;8.60;;;;;;;11.57;100.00;101885.94;6212263;23;20493;-71
2023/09/26 05:40:06;;;;;;;22.65;8.65;;;;;;;11.54;100.00;101881.63;6212603;23;20419;-71
2023/09/26 05:42:32;;;;;;;22.30;8.20;;;;;;;11.53;100.00;101891.50;6214418;23;20011;-71
2023/09/26 05:44:58;;;;;;;19.77;8.50;;;;;;;11.54;100.00;101892.38;6213816;23;20009;-71
2023/09/26 05:47:23;;;;;;;21.58;9.23;;;;;;;11.53;100.00;101894.19;6214500;23;20008;-72
2023/09/26 05:49:50;;;;;;;21.95;9.25;;;;;;;11.55;100.00;101899.50;6215222;23;20035;-71
2023/09/26 05:52:15;;;;;;;23.23;8.90;;;;;;;11.54;100.00;101895.94;6212403;23;20123;-71
2023/09/26 05:54:41;;;;;;;20.45;8.60;;;;;;;11.57;100.00;101902.09;6214378;23;20040;-71
2023/09/26 05:57:09;;;;;;;19.67;9.15;;;;;;;11.59;100.00;101906.44;6213833;23;20340;-71
2023/09/26 05:59:34;;;;;;;21.60;9.95;;;;;;;11.63;100.00;101899.03;6214202;23;20073;-71
2023/09/26 06:02:00;;;;;;;23.02;10.05;;;;;;;11.66;100.00;101896.16;6214729;23;20042;-71
2023/09/26 06:04:25;;;;;;;21.50;9.75;;;;;;;11.70;100.00;101893.19;6214986;23;20039;-71
2023/09/26 06:06:53;;;;;;;21.30;9.32;;;;;;;11.75;100.00;101898.28;6212567;23;20020;-71
2023/09/26 06:09:19;;;;;;;22.13;10.13;;;;;;;11.78;100.00;101898.09;6213766;23;20030;-71
2023/09/26 06:11:44;;;;;;;21.67;9.93;;;;;;;11.84;100.00;101894.16;6214970;23;20083;-71
2023/09/26 06:14:09;;;;;;;22.50;10.30;;;;;;;11.87;100.00;101899.34;6214540;23;20314;-71
2023/09/26 06:16:35;;;;;;;21.55;9.75;;;;;;;11.92;100.00;101899.94;6214615;23;20000;-71
2023/09/26 06:19:00;;;;;;;24.67;10.60;;;;;;;11.97;100.00;101897.00;6212514;23;20024;-71
2023/09/26 06:21:25;;;;;;;23.55;10.65;;;;;;;12.03;100.00;101892.06;6212547;23;20001;-71
2023/09/26 06:23:51;;;;;;;20.98;9.77;;;;;;;12.09;100.00;101881.88;6211954;23;20082;-71
2023/09/26 06:26:16;;;;;;;21.77;10.30;;;;;;;12.16;100.00;101876.00;6212170;23;20451;-71
2023/09/26 06:28:41;;;;;;;22.60;10.45;;;;;;;12.21;100.00;101876.59;6210860;23;20385;-70
2023/09/26 06:31:08;;;;;;;21.95;10.80;;;;;;;12.26;100.00;101876.28;6212859;23;20358;-71
2023/09/26 06:33:35;;;;;;;25.55;10.60;;;;;;;12.30;100.00;101864.34;6213291;23;20031;-71
2023/09/26 06:36:00;;;;;;;21.02;10.05;;;;;;;12.37;100.00;101864.78;6212308;23;20005;-71
2023/09/26 06:38:26;;;;;;;21.52;9.82;;;;;;;12.39;100.00;101870.97;6213466;23;20445;-71
2023/09/26 06:41:04;;;;;;;20.95;9.65;;;;;;;12.46;100.00;101879.50;6213578;23;20004;-72
2023/09/26 06:43:30;;;;;;;23.60;11.05;;;;;;;12.50;100.00;101881.91;6210699;23;20005;-71
2023/09/26 06:45:55;;;;;;;22.73;9.95;;;;;;;12.53;100.00;101883.53;6212291;23;20008;-71
2023/09/26 06:48:21;;;;;;;20.48;9.20;;;;;;;12.58;100.00;101889.50;6211505;23;20387;-71
2023/09/26 06:50:46;;;;;;;23.35;10.95;;;;;;;12.63;100.00;101889.22;6212500;23;20563;-71
2023/09/26 06:53:11;;;;;;;21.55;9.73;;;;;;;12.68;100.00;101887.06;6213328;23;20019;-71
2023/09/26 06:55:39;;;;;;;24.88;10.23;;;;;;;12.71;100.00;101885.03;6212125;23;20068;-71
2023/09/26 06:58:05;;;;;;;25.52;10.00;;;;;;;12.74;100.00;101895.63;6209388;23;20011;-73
2023/09/26 07:00:31;;;;;;;23.05;10.55;;;;;;;12.77;100.00;101889.19;6211943;23;20170;-73
2023/09/26 07:02:57;;;;;;;23.40;9.88;;;;;;;12.80;100.00;101891.66;6210983;23;20474;-73
2023/09/26 07:05:23;;;;;;;20.45;10.10;;;;;;;12.83;100.00;101888.75;6213144;23;20035;-73
2023/09/26 07:07:48;;;;;;;26.63;9.73;;;;;;;12.88;100.00;101897.41;6239922;23;20012;-73
2023/09/26 07:10:14;;;;;;;21.92;10.20;;;;;;;12.94;100.00;101890.72;6243245;23;20104;-74
2023/09/26 07:12:39;;;;;;;23.00;10.10;;;;;;;12.98;100.00;101894.97;6241794;23;20011;-73
2023/09/26 07:15:06;;;;;;;22.13;9.93;;;;;;;13.02;100.00;101895.63;6240167;23;20008;-73
2023/09/26 07:17:31;;;;;;;23.52;10.40;;;;;;;13.08;100.00;101889.81;6241006;23;20031;-73
2023/09/26 07:19:59;;;;;;;23.00;9.57;;;;;;;13.12;100.00;101894.06;6242087;23;20034;-73
2023/09/26 07:22:24;;;;;;;22.70;9.52;;;;;;;13.16;100.00;101889.28;6242126;23;20004;-74
2023/09/26 07:24:50;;;;;;;21.85;10.38;;;;;;;13.18;100.00;101887.38;6241114;23;20008;-73
2023/09/26 07:27:18;;;;;;;20.08;10.20;;;;;;;13.22;100.00;101884.38;6214635;23;20433;-73
2023/09/26 07:29:46;;;;;;;21.70;9.65;;;;;;;13.27;100.00;101887.59;6240215;23;20283;-73
2023/09/26 07:32:12;;;;;;;23.58;10.18;;;;;;;13.32;100.00;101891.81;6214037;23;20087;-73
2023/09/26 07:34:37;;;;;;;25.52;10.00;;;;;;;13.37;100.00;101889.72;6241484;23;20027;-73
2023/09/26 07:37:03;;;;;;;22.80;9.85;;;;;;;13.42;100.00;101885.69;6213351;23;20008;-73
2023/09/26 07:39:28;;;;;;;23.23;9.35;;;;;;;13.46;100.00;101887.22;6241098;23;20047;-73
2023/09/26 07:41:53;;;;;;;20.77;9.30;;;;;;;13.51;100.00;101884.22;6241308;23;20030;-72
2023/09/26 07:44:19;;;;;;;21.33;9.18;;;;;;;13.58;100.00;101884.66;6240702;23;20070;-73
2023/09/26 07:46:44;;;;;;;22.35;9.10;;;;;;;13.59;100.00;101884.56;6215029;23;20030;-73
2023/09/26 07:49:09;;;;;;;21.27;9.25;;;;;;;13.62;100.00;101889.72;6214515;23;20061;-73
2023/09/26 07:51:35;;;;;;;18.95;8.45;;;;;;;13.67;100.00;101891.25;6241800;23;20138;-73
2023/09/26 07:54:00;;;;;;;18.52;8.07;;;;;;;13.72;100.00;101894.47;6241966;23;20018;-73
2023/09/26 07:56:25;;;;;;;19.95;8.15;;;;;;;13.76;100.00;101893.31;6242098;23;20426;-73
2023/09/26 07:58:51;;;;;;;21.10;9.18;;;;;;;13.79;100.00;101882.28;6213520;23;20087;-73
2023/09/26 08:01:16;;;;;;;19.55;8.77;;;;;;;13.84;100.00;101885.53;6241282;23;20004;-73
2023/09/26 08:03:43;;;;;;;21.05;8.95;;;;;;;13.90;100.00;101889.66;6241712;23;20330;-73
2023/09/26 08:06:09;;;;;;;21.75;8.70;;;;;;;13.95;100.00;101882.94;6214352;23;20016;-73
2023/09/26 08:08:35;;;;;;;19.63;7.60;;;;;;;14.02;100.00;101882.50;6214289;23;20091;-73
2023/09/26 08:11:09;;;;;;;21.02;8.77;;;;;;;14.10;100.00;101872.88;6241922;23;20032;-73
2023/09/26 08:13:35;;;;;;;20.15;9.10;;;;;;;14.18;100.00;101871.44;6241884;23;20027;-73
2023/09/26 08:16:00;;;;;;;23.80;8.32;;;;;;;14.24;100.00;101876.41;6214430;23;20322;-73
2023/09/26 08:18:26;;;;;;;24.30;8.77;;;;;;;14.28;100.00;101873.38;6215223;23;20004;-73
2023/09/26 08:20:57;;;;;;;20.13;8.23;;;;;;;14.32;100.00;101879.44;6214469;23;20430;-73
2023/09/26 08:23:22;;;;;;;18.52;7.82;;;;;;;14.38;100.00;101878.09;6240700;23;20032;-73
2023/09/26 08:25:48;;;;;;;21.08;7.88;;;;;;;14.43;100.00;101878.63;6240572;23;20000;-73
2023/09/26 08:28:15;;;;;;;21.17;8.07;;;;;;;14.47;100.00;101880.16;6240325;23;20486;-73
2023/09/26 08:30:40;;;;;;;22.33;8.02;;;;;;;14.55;100.00;101882.28;6241618;23;20061;-73
2023/09/26 08:33:06;;;;;;;21.80;7.68;;;;;;;14.59;100.00;101879.22;6213897;23;20004;-73
2023/09/26 08:35:31;;;;;;;17.15;6.72;;;;;;;14.64;100.00;101878.91;6212959;23;20083;-73
2023/09/26 08:37:57;;;;;;;18.25;7.47;;;;;;;14.70;100.00;101878.47;6241398;23;20008;-73
2023/09/26 08:40:26;;;;;;;24.60;7.60;;;;;;;14.79;100.00;101874.22;6215802;23;20011;-74
2023/09/26 08:42:57;;;;;;;18.30;6.65;;;;;;;14.83;100.00;101870.28;6240898;23;20000;-73
2023/09/26 08:45:25;;;;;;;20.48;7.68;;;;;;;14.87;100.00;101879.91;6241114;23;20028;-73
2023/09/26 08:47:54;;;;;;;17.50;7.07;;;;;;;14.95;100.00;101869.38;6242153;23;20000;-74
2023/09/26 08:50:21;;;;;;;22.57;7.57;;;;;;;14.98;100.00;101866.44;6215863;23;20059;-74
2023/09/26 08:52:47;;;;;;;19.33;7.38;;;;;;;15.04;100.00;101870.53;6242535;23;20242;-74
2023/09/26 08:55:12;;;;;;;17.52;6.45;;;;;;;15.10;100.00;101869.19;6215503;23;20374;-73
2023/09/26 08:57:45;;;;;;;19.55;7.30;;;;;;;15.16;100.00;101876.84;6214639;23;20008;-73
2023/09/26 09:00:12;;;;;;;18.35;6.80;;;;;;;15.23;100.00;101872.69;6242377;23;20004;-73
2023/09/26 09:02:38;;;;;;;17.55;6.38;;;;;;;15.25;100.00;101868.00;6242316;23;20008;-73
2023/09/26 09:05:05;;;;;;;17.70;6.50;;;;;;;15.31;100.00;101859.41;6242348;23;20089;-73
2023/09/26 09:07:31;;;;;;;17.75;5.95;;;;;;;15.35;100.00;101863.59;6240953;23;20016;-73
2023/09/26 09:10:11;;;;;;;16.83;6.68;;;;;;;15.41;100.00;101864.13;6242515;23;20350;-74
2023/09/26 09:12:40;;;;;;;17.33;6.47;;;;;;;15.46;100.00;101859.19;6215586;23;20010;-75
2023/09/26 09:15:14;;;;;;;19.02;5.97;;;;;;;15.52;100.00;101869.53;6215187;23;20014;-74
2023/09/26 09:17:41;;;;;;;16.98;6.05;;;;;;;15.57;100.00;101866.50;6242306;23;20269;-70
2023/09/26 09:20:07;;;;;;;15.90;5.60;;;;;;;15.64;100.00;101873.16;6242768;23;20004;-72
2023/09/26 09:22:32;;;;;;;15.02;5.13;;;;;;;15.68;100.00;101880.94;6242318;23;20078;-72
2023/09/26 09:24:59;;;;;;;19.42;5.80;;;;;;;15.72;100.00;101876.13;6215371;23;20410;-72
2023/09/26 09:27:36;;;;;;;15.48;5.85;;;;;;;15.77;100.00;101873.03;6242283;23;20000;-72
2023/09/26 09:30:11;;;;;;;14.93;5.05;;;;;;;15.80;100.00;101873.72;6241895;23;20338;-72
2023/09/26 09:32:39;;;;;;;14.43;4.90;;;;;;;15.84;100.00;101869.78;6241977;23;20012;-71
2023/09/26 09:35:04;;;;;;;16.67;5.03;;;;;;;15.88;100.00;101864.97;6242166;23;20008;-72
2023/09/26 09:37:30;;;;;;;18.35;6.75;;;;;;;15.92;100.00;101863.72;6242137;23;20035;-72
2023/09/26 09:39:55;;;;;;;13.68;5.07;;;;;;;15.97;100.00;101866.06;6242251;23;20118;-72
2023/09/26 09:42:22;;;;;;;15.00;4.78;;;;;;;16.01;100.00;101849.44;6215139;23;20023;-71
2023/09/26 09:44:47;;;;;;;13.18;4.75;;;;;;;16.06;100.00;101849.94;6215245;23;20086;-71
2023/09/26 09:47:22;;;;;;;11.98;4.95;;;;;;;16.12;100.00;101839.56;6214104;23;20036;-72
2023/09/26 09:49:49;;;;;;;14.95;5.45;;;;;;;16.16;100.00;101836.47;6242330;23;20000;-72
2023/09/26 09:52:17;;;;;;;14.73;5.35;;;;;;;16.23;100.00;101840.41;6241938;23;20016;-72
2023/09/26 09:54:47;;;;;;;14.75;4.50;;;;;;;16.26;100.00;101839.31;6243490;23;20004;-72
2023/09/26 09:57:19;;;;;;;16.50;4.68;;;;;;;16.32;100.00;101846.09;6244182;23;20071;-72
2023/09/26 09:59:47;;;;;;;13.70;4.20;;;;;;;16.35;100.00;101838.53;6244226;23;20354;-72
2023/09/26 10:02:16;;;;;;;17.27;5.38;;;;;;;16.39;100.00;101837.31;6243886;23;20000;-72
2023/09/26 10:04:44;;;;;;;16.60;5.68;;;;;;;16.43;100.00;101838.78;6244123;23;20065;-72
2023/09/26 10:07:12;;;;;;;16.85;5.30;;;;;;;16.49;100.00;101845.56;6216402;23;20024;-73
2023/09/26 10:09:38;;;;;;;14.00;5.03;;;;;;;16.55;100.00;101845.03;6244094;23;20027;-72
2023/09/26 10:12:04;;;;;;;17.42;5.03;;;;;;;16.59;100.00;101841.09;6243584;23;20023;-72
2023/09/26 10:14:31;;;;;;;18.27;5.47;;;;;;;16.62;100.00;101841.81;6216768;23;20008;-72
2023/09/26 10:16:57;;;;;;;15.23;4.55;;;;;;;16.66;100.00;101838.75;6216577;23;20318;-72
2023/09/26 10:19:25;;;;;;;15.40;5.30;;;;;;;16.71;100.00;101839.19;6243488;23;20011;-72
2023/09/26 10:22:11;;;;;;;16.30;5.78;;;;;;;16.73;100.00;101837.22;6243516;23;20010;-72
2023/09/26 10:24:45;;;;;;;14.23;5.43;;;;;;;16.76;100.00;101836.09;6216461;23;20020;-72
2023/09/26 10:27:10;;;;;;;17.00;5.75;;;;;;;16.81;100.00;101835.69;6243711;23;20004;-73
2023/09/26 10:29:36;;;;;;;16.58;5.57;;;;;;;16.85;100.00;101839.88;6243416;23;20004;-73
2023/09/26 10:32:07;;;;;;;17.90;6.07;;;;;;;16.88;100.00;101840.53;6243434;23;20004;-74
2023/09/26 10:34:37;;;;;;;14.32;4.78;;;;;;;16.91;100.00;101842.13;6243351;23;20382;-74
2023/09/26 10:37:06;;;;;;;16.45;5.75;;;;;;;16.96;100.00;101848.03;6243617;23;20307;-73
2023/09/26 10:39:36;;;;;;;15.43;6.13;;;;;;;17.00;100.00;101830.50;6243447;23;20007;-73
2023/09/26 10:42:12;;;;;;;16.27;5.80;;;;;;;17.03;100.00;101824.78;6243410;23;20000;-73
2023/09/26 10:44:39;;;;;;;18.73;6.38;;;;;;;17.06;100.00;101818.25;6243770;23;20386;-74
2023/09/26 10:47:05;;;;;;;16.10;5.70;;;;;;;17.09;100.00;101826.97;6243280;23;20338;-73
2023/09/26 10:49:32;;;;;;;14.40;5.78;;;;;;;17.12;100.00;101829.44;6243132;23;20023;-73
2023/09/26 10:52:01;;;;;;;15.50;6.05;;;;;;;17.18;100.00;101838.91;6216409;23;20039;-73
2023/09/26 10:54:27;;;;;;;17.05;5.40;;;;;;;17.21;100.00;101833.22;6216556;23;20444;-74
2023/09/26 10:56:53;;;;;;;16.65;5.68;;;;;;;17.23;99.88;101823.09;6216705;23;20345;-74
2023/09/26 10:59:18;;;;;;;18.23;6.25;;;;;;;17.28;97.78;101817.25;6243116;23;20031;-73
2023/09/26 11:01:45;;;;;;;19.15;6.95;;;;;;;17.32;98.43;101825.97;6216423;23;20004;-74
2023/09/26 11:04:11;;;;;;;17.58;6.30;;;;;;;17.35;97.56;101823.88;6214228;23;20042;-73
2023/09/26 11:06:37;;;;;;;17.70;6.57;;;;;;;17.39;97.76;101833.47;6214660;23;20111;-73